sensor_id;sensor_type;location;lat;lon;timestamp;temperature;humidity
67890;DHT22;54685;52.082;5.426;2023-05-17T00:02:18;8.80;99.90
67890;DHT22;54685;52.082;5.426;2023-05-17T00:04:45;8.70;99.90
67890;DHT22;54685;52.082;5.426;2023-05-17T00:07:12;8.70;99.90
67890;DHT22;54685;52.082;5.426;2023-05-17T00:09:39;8.70;99.90
67890;DHT22;54685;52.082;5.426;2023-05-17T00:12:06;8.60;99.90
67890;DHT22;54685;52.082;5.426;2023-05-17T00:14:32;8.60;99.90
67890;DHT22;54685;52.082;5.426;2023-05-17T00:17:00;8.60;99.90
67890;DHT22;54685;52.082;5.426;2023-05-17T00:19:26;8.60;99.90
67890;DHT22;54685;52.082;5.426;2023-05-17T00:21:53;8.60;99.90
67890;DHT22;54685;52.082;5.426;2023-05-17T00:24:22;8.60;99.90
67890;DHT22;54685;52.082;5.426;2023-05-17T00:26:49;8.50;99.90
67890;DHT22;54685;52.082;5.426;2023-05-17T00:29:16;8.50;99.90
67890;DHT22;54685;52.082;5.426;2023-05-17T00:31:43;8.50;99.90
67890;DHT22;54685;52.082;5.426;2023-05-17T00:34:10;8.50;99.90
67890;DHT22;54685;52.082;5.426;2023-05-17T00:36:37;8.50;99.90
67890;DHT22;54685;52.082;5.426;2023-05-17T00:39:03;8.60;99.90
67890;DHT22;54685;52.082;5.426;2023-05-17T00:41:30;8.60;99.90
67890;DHT22;54685;52.082;5.426;2023-05-17T00:43:57;8.60;99.90
67890;DHT22;54685;52.082;5.426;2023-05-17T00:46:24;8.60;99.90
67890;DHT22;54685;52.082;5.426;2023-05-17T00:48:52;8.60;99.90
67890;DHT22;54685;52.082;5.426;2023-05-17T00:51:20;8.60;99.90
67890;DHT22;54685;52.082;5.426;2023-05-17T00:53:47;8.60;99.90
67890;DHT22;54685;52.082;5.426;2023-05-17T00:56:14;8.60;99.90
67890;DHT22;54685;52.082;5.426;2023-05-17T00:58:42;8.60;99.90
67890;DHT22;54685;52.082;5.426;2023-05-17T01:01:09;8.60;99.90
67890;DHT22;54685;52.082;5.426;2023-05-17T01:03:36;8.60;99.90
67890;DHT22;54685;52.082;5.426;2023-05-17T01:06:05;8.60;99.90
67890;DHT22;54685;52.082;5.426;2023-05-17T01:08:34;8.60;99.90
67890;DHT22;54685;52.082;5.426;2023-05-17T01:11:24;8.60;99.90
67890;DHT22;54685;52.082;5.426;2023-05-17T01:16:48;8.50;99.90
67890;DHT22;54685;52.082;5.426;2023-05-17T01:20:28;8.50;99.90
67890;DHT22;54685;52.082;5.426;2023-05-17T01:27:59;8.60;99.90
67890;DHT22;54685;52.082;5.426;2023-05-17T01:30:28;8.60;99.90
67890;DHT22;54685;52.082;5.426;2023-05-17T01:32:56;8.60;99.90
67890;DHT22;54685;52.082;5.426;2023-05-17T01:35:25;8.60;99.90
67890;DHT22;54685;52.082;5.426;2023-05-17T01:37:52;8.60;99.90
67890;DHT22;54685;52.082;5.426;2023-05-17T01:40:20;8.70;99.90
67890;DHT22;54685;52.082;5.426;2023-05-17T01:42:52;8.70;99.90
67890;DHT22;54685;52.082;5.426;2023-05-17T01:45:24;8.80;99.90
67890;DHT22;54685;52.082;5.426;2023-05-17T01:50:32;8.90;99.90
67890;DHT22;54685;52.082;5.426;2023-05-17T01:53:04;8.90;99.90
67890;DHT22;54685;52.082;5.426;2023-05-17T01:55:35;8.90;99.90
67890;DHT22;54685;52.082;5.426;2023-05-17T01:58:07;9.00;99.90
67890;DHT22;54685;52.082;5.426;2023-05-17T02:00:39;9.00;99.90
67890;DHT22;54685;52.082;5.426;2023-05-17T02:03:11;9.00;99.90
67890;DHT22;54685;52.082;5.426;2023-05-17T02:05:40;9.10;99.90
67890;DHT22;54685;52.082;5.426;2023-05-17T02:08:06;9.10;99.90
67890;DHT22;54685;52.082;5.426;2023-05-17T02:10:33;9.10;99.90
67890;DHT22;54685;52.082;5.426;2023-05-17T02:13:02;9.10;99.90
67890;DHT22;54685;52.082;5.426;2023-05-17T02:15:29;9.20;99.90
67890;DHT22;54685;52.082;5.426;2023-05-17T02:17:58;9.20;99.90
67890;DHT22;54685;52.082;5.426;2023-05-17T02:20:26;9.20;99.90
67890;DHT22;54685;52.082;5.426;2023-05-17T02:22:53;9.20;99.90
67890;DHT22;54685;52.082;5.426;2023-05-17T02:25:20;9.20;99.90
67890;DHT22;54685;52.082;5.426;2023-05-17T02:27:47;9.30;99.90
67890;DHT22;54685;52.082;5.426;2023-05-17T02:30:14;9.30;99.90
67890;DHT22;54685;52.082;5.426;2023-05-17T02:32:44;9.30;99.90
67890;DHT22;54685;52.082;5.426;2023-05-17T02:35:12;9.30;99.90
67890;DHT22;54685;52.082;5.426;2023-05-17T02:37:39;9.30;99.90
67890;DHT22;54685;52.082;5.426;2023-05-17T02:40:07;9.40;99.90
67890;DHT22;54685;52.082;5.426;2023-05-17T02:42:35;9.40;99.90
67890;DHT22;54685;52.082;5.426;2023-05-17T02:45:03;9.40;99.90
67890;DHT22;54685;52.082;5.426;2023-05-17T02:47:29;9.40;99.90
67890;DHT22;54685;52.082;5.426;2023-05-17T02:49:57;9.30;99.90
67890;DHT22;54685;52.082;5.426;2023-05-17T02:52:24;9.30;99.90
67890;DHT22;54685;52.082;5.426;2023-05-17T02:54:51;9.30;99.90
67890;DHT22;54685;52.082;5.426;2023-05-17T02:57:18;9.30;99.90
67890;DHT22;54685;52.082;5.426;2023-05-17T02:59:45;9.40;99.90
67890;DHT22;54685;52.082;5.426;2023-05-17T03:02:12;9.30;99.90
67890;DHT22;54685;52.082;5.426;2023-05-17T03:04:39;9.30;99.90
67890;DHT22;54685;52.082;5.426;2023-05-17T03:07:07;9.20;99.90
67890;DHT22;54685;52.082;5.426;2023-05-17T03:09:35;9.20;99.90
67890;DHT22;54685;52.082;5.426;2023-05-17T03:12:03;9.20;99.90
67890;DHT22;54685;52.082;5.426;2023-05-17T03:14:32;9.20;99.90
67890;DHT22;54685;52.082;5.426;2023-05-17T03:17:00;9.30;99.90
67890;DHT22;54685;52.082;5.426;2023-05-17T03:19:27;9.30;99.90
67890;DHT22;54685;52.082;5.426;2023-05-17T03:21:55;9.30;99.90
67890;DHT22;54685;52.082;5.426;2023-05-17T03:24:21;9.40;99.90
67890;DHT22;54685;52.082;5.426;2023-05-17T03:26:49;9.30;99.90
67890;DHT22;54685;52.082;5.426;2023-05-17T03:29:16;9.30;99.90
67890;DHT22;54685;52.082;5.426;2023-05-17T03:31:44;9.40;99.90
67890;DHT22;54685;52.082;5.426;2023-05-17T03:34:12;9.30;99.90
67890;DHT22;54685;52.082;5.426;2023-05-17T03:36:39;9.30;99.90
67890;DHT22;54685;52.082;5.426;2023-05-17T03:39:09;9.30;99.90
67890;DHT22;54685;52.082;5.426;2023-05-17T03:41:38;9.20;99.90
67890;DHT22;54685;52.082;5.426;2023-05-17T03:44:08;9.20;99.90
67890;DHT22;54685;52.082;5.426;2023-05-17T03:46:35;9.20;99.90
67890;DHT22;54685;52.082;5.426;2023-05-17T03:49:03;9.10;99.90
67890;DHT22;54685;52.082;5.426;2023-05-17T03:51:31;9.10;99.90
67890;DHT22;54685;52.082;5.426;2023-05-17T03:54:00;9.10;99.90
67890;DHT22;54685;52.082;5.426;2023-05-17T03:56:29;9.00;99.90
67890;DHT22;54685;52.082;5.426;2023-05-17T03:58:57;9.00;99.90
67890;DHT22;54685;52.082;5.426;2023-05-17T04:01:24;8.90;99.90
67890;DHT22;54685;52.082;5.426;2023-05-17T04:03:52;8.90;99.90
67890;DHT22;54685;52.082;5.426;2023-05-17T04:06:20;8.90;99.90
67890;DHT22;54685;52.082;5.426;2023-05-17T04:08:48;8.90;99.90
67890;DHT22;54685;52.082;5.426;2023-05-17T04:11:14;8.90;99.90
67890;DHT22;54685;52.082;5.426;2023-05-17T04:13:42;8.80;99.90
67890;DHT22;54685;52.082;5.426;2023-05-17T04:16:09;8.80;99.90
67890;DHT22;54685;52.082;5.426;2023-05-17T04:18:39;8.70;99.90
67890;DHT22;54685;52.082;5.426;2023-05-17T04:21:07;8.70;99.90
67890;DHT22;54685;52.082;5.426;2023-05-17T04:23:35;8.70;99.90
67890;DHT22;54685;52.082;5.426;2023-05-17T04:26:03;8.70;99.90
67890;DHT22;54685;52.082;5.426;2023-05-17T04:28:34;8.70;99.90
67890;DHT22;54685;52.082;5.426;2023-05-17T04:31:06;8.60;99.90
67890;DHT22;54685;52.082;5.426;2023-05-17T04:33:37;8.70;99.90
67890;DHT22;54685;52.082;5.426;2023-05-17T04:36:05;8.70;99.90
67890;DHT22;54685;52.082;5.426;2023-05-17T04:38:34;8.60;99.90
67890;DHT22;54685;52.082;5.426;2023-05-17T04:41:04;8.60;99.90
67890;DHT22;54685;52.082;5.426;2023-05-17T04:43:34;8.70;99.90
67890;DHT22;54685;52.082;5.426;2023-05-17T04:46:05;8.60;99.90
67890;DHT22;54685;52.082;5.426;2023-05-17T04:48:33;8.70;99.90
67890;DHT22;54685;52.082;5.426;2023-05-17T04:51:01;8.70;99.90
67890;DHT22;54685;52.082;5.426;2023-05-17T04:53:31;8.70;99.90
67890;DHT22;54685;52.082;5.426;2023-05-17T04:56:01;8.80;99.90
67890;DHT22;54685;52.082;5.426;2023-05-17T04:58:29;8.80;99.90
67890;DHT22;54685;52.082;5.426;2023-05-17T05:00:58;8.80;99.90
67890;DHT22;54685;52.082;5.426;2023-05-17T05:03:26;8.80;99.90
67890;DHT22;54685;52.082;5.426;2023-05-17T05:05:54;8.80;99.90
67890;DHT22;54685;52.082;5.426;2023-05-17T05:08:21;8.90;99.90
67890;DHT22;54685;52.082;5.426;2023-05-17T05:10:50;8.90;99.90
67890;DHT22;54685;52.082;5.426;2023-05-17T05:13:17;8.90;99.90
67890;DHT22;54685;52.082;5.426;2023-05-17T05:15:44;9.00;99.90
67890;DHT22;54685;52.082;5.426;2023-05-17T05:18:11;9.00;99.90
67890;DHT22;54685;52.082;5.426;2023-05-17T05:20:38;9.10;99.90
67890;DHT22;54685;52.082;5.426;2023-05-17T05:23:05;9.10;99.90
67890;DHT22;54685;52.082;5.426;2023-05-17T05:25:34;9.10;99.90
67890;DHT22;54685;52.082;5.426;2023-05-17T05:28:01;9.10;99.90
67890;DHT22;54685;52.082;5.426;2023-05-17T05:30:30;9.10;99.90
67890;DHT22;54685;52.082;5.426;2023-05-17T05:32:57;9.20;99.90
67890;DHT22;54685;52.082;5.426;2023-05-17T05:35:24;9.20;99.90
67890;DHT22;54685;52.082;5.426;2023-05-17T05:37:57;9.40;99.90
67890;DHT22;54685;52.082;5.426;2023-05-17T05:40:24;9.30;99.90
67890;DHT22;54685;52.082;5.426;2023-05-17T05:42:54;9.40;99.90
67890;DHT22;54685;52.082;5.426;2023-05-17T05:45:22;9.50;99.90
67890;DHT22;54685;52.082;5.426;2023-05-17T05:47:51;9.50;99.90
67890;DHT22;54685;52.082;5.426;2023-05-17T05:50:18;9.60;99.90
67890;DHT22;54685;52.082;5.426;2023-05-17T05:52:46;9.60;99.90
67890;DHT22;54685;52.082;5.426;2023-05-17T05:55:13;9.60;99.90
67890;DHT22;54685;52.082;5.426;2023-05-17T05:57:40;9.70;99.90
67890;DHT22;54685;52.082;5.426;2023-05-17T06:00:07;9.70;99.90
67890;DHT22;54685;52.082;5.426;2023-05-17T06:02:41;9.80;99.90
67890;DHT22;54685;52.082;5.426;2023-05-17T06:05:08;9.90;99.90
67890;DHT22;54685;52.082;5.426;2023-05-17T06:07:35;9.90;99.90
67890;DHT22;54685;52.082;5.426;2023-05-17T06:10:03;9.90;99.90
67890;DHT22;54685;52.082;5.426;2023-05-17T06:12:33;10.00;99.90
67890;DHT22;54685;52.082;5.426;2023-05-17T06:15:00;10.00;99.90
67890;DHT22;54685;52.082;5.426;2023-05-17T06:17:26;10.10;99.90
67890;DHT22;54685;52.082;5.426;2023-05-17T06:19:53;10.10;99.90
67890;DHT22;54685;52.082;5.426;2023-05-17T06:22:21;10.20;99.90
67890;DHT22;54685;52.082;5.426;2023-05-17T06:24:47;10.20;99.90
67890;DHT22;54685;52.082;5.426;2023-05-17T06:27:15;10.20;99.90
67890;DHT22;54685;52.082;5.426;2023-05-17T06:29:43;10.20;99.90
67890;DHT22;54685;52.082;5.426;2023-05-17T06:32:10;10.30;99.90
67890;DHT22;54685;52.082;5.426;2023-05-17T06:34:37;10.30;99.90
67890;DHT22;54685;52.082;5.426;2023-05-17T06:37:05;10.40;99.90
67890;DHT22;54685;52.082;5.426;2023-05-17T06:39:32;10.40;99.90
67890;DHT22;54685;52.082;5.426;2023-05-17T06:41:59;10.50;99.90
67890;DHT22;54685;52.082;5.426;2023-05-17T06:44:32;10.50;99.90
67890;DHT22;54685;52.082;5.426;2023-05-17T06:46:59;10.60;99.90
67890;DHT22;54685;52.082;5.426;2023-05-17T06:49:26;10.70;99.90
67890;DHT22;54685;52.082;5.426;2023-05-17T06:51:53;10.80;99.90
67890;DHT22;54685;52.082;5.426;2023-05-17T06:54:22;10.80;99.90
67890;DHT22;54685;52.082;5.426;2023-05-17T06:56:49;10.80;99.90
67890;DHT22;54685;52.082;5.426;2023-05-17T06:59:16;10.90;99.90
67890;DHT22;54685;52.082;5.426;2023-05-17T07:01:43;10.90;99.90
67890;DHT22;54685;52.082;5.426;2023-05-17T07:04:10;11.00;99.90
67890;DHT22;54685;52.082;5.426;2023-05-17T07:06:37;11.10;99.90
67890;DHT22;54685;52.082;5.426;2023-05-17T07:09:04;11.20;99.90
67890;DHT22;54685;52.082;5.426;2023-05-17T07:11:37;11.30;99.90
67890;DHT22;54685;52.082;5.426;2023-05-17T07:14:08;11.50;99.90
67890;DHT22;54685;52.082;5.426;2023-05-17T07:16:35;11.60;99.90
67890;DHT22;54685;52.082;5.426;2023-05-17T07:19:05;11.70;99.90
67890;DHT22;54685;52.082;5.426;2023-05-17T07:21:32;11.80;99.90
67890;DHT22;54685;52.082;5.426;2023-05-17T07:23:59;11.80;99.90
67890;DHT22;54685;52.082;5.426;2023-05-17T07:26:27;11.80;99.90
67890;DHT22;54685;52.082;5.426;2023-05-17T07:28:54;11.70;99.90
67890;DHT22;54685;52.082;5.426;2023-05-17T07:31:21;11.50;99.90
67890;DHT22;54685;52.082;5.426;2023-05-17T07:33:48;11.50;99.90
67890;DHT22;54685;52.082;5.426;2023-05-17T07:36:15;11.50;99.90
67890;DHT22;54685;52.082;5.426;2023-05-17T07:38:45;11.40;99.90
67890;DHT22;54685;52.082;5.426;2023-05-17T07:41:12;11.40;99.90
67890;DHT22;54685;52.082;5.426;2023-05-17T07:43:42;11.40;99.90
67890;DHT22;54685;52.082;5.426;2023-05-17T07:46:09;11.40;99.90
67890;DHT22;54685;52.082;5.426;2023-05-17T07:48:36;11.30;99.90
67890;DHT22;54685;52.082;5.426;2023-05-17T07:51:03;11.30;99.90
67890;DHT22;54685;52.082;5.426;2023-05-17T07:53:31;11.40;99.90
67890;DHT22;54685;52.082;5.426;2023-05-17T07:55:59;11.50;99.90
67890;DHT22;54685;52.082;5.426;2023-05-17T07:58:28;11.70;99.90
67890;DHT22;54685;52.082;5.426;2023-05-17T08:00:59;11.90;99.90
67890;DHT22;54685;52.082;5.426;2023-05-17T08:03:26;12.00;99.90
67890;DHT22;54685;52.082;5.426;2023-05-17T08:05:54;12.10;99.90
67890;DHT22;54685;52.082;5.426;2023-05-17T08:08:21;12.10;98.20
67890;DHT22;54685;52.082;5.426;2023-05-17T08:10:48;12.10;99.90
67890;DHT22;54685;52.082;5.426;2023-05-17T08:13:15;12.00;99.90
67890;DHT22;54685;52.082;5.426;2023-05-17T08:15:42;12.00;99.90
67890;DHT22;54685;52.082;5.426;2023-05-17T08:18:10;11.90;99.90
67890;DHT22;54685;52.082;5.426;2023-05-17T08:20:37;11.80;99.90
67890;DHT22;54685;52.082;5.426;2023-05-17T08:23:04;11.90;99.90
67890;DHT22;54685;52.082;5.426;2023-05-17T08:25:31;11.90;99.90
67890;DHT22;54685;52.082;5.426;2023-05-17T08:27:58;12.10;99.90
67890;DHT22;54685;52.082;5.426;2023-05-17T08:30:25;12.30;97.70
67890;DHT22;54685;52.082;5.426;2023-05-17T08:32:55;12.60;98.90
67890;DHT22;54685;52.082;5.426;2023-05-17T08:35:22;12.70;95.00
67890;DHT22;54685;52.082;5.426;2023-05-17T08:37:54;12.80;95.40
67890;DHT22;54685;52.082;5.426;2023-05-17T08:40:21;13.00;93.70
67890;DHT22;54685;52.082;5.426;2023-05-17T08:42:49;13.20;94.50
67890;DHT22;54685;52.082;5.426;2023-05-17T08:45:17;13.20;94.90
67890;DHT22;54685;52.082;5.426;2023-05-17T08:47:45;13.00;91.10
67890;DHT22;54685;52.082;5.426;2023-05-17T08:50:12;13.00;93.50
67890;DHT22;54685;52.082;5.426;2023-05-17T08:52:43;12.90;94.00
67890;DHT22;54685;52.082;5.426;2023-05-17T08:55:11;12.90;93.30
67890;DHT22;54685;52.082;5.426;2023-05-17T08:57:42;13.10;92.40
67890;DHT22;54685;52.082;5.426;2023-05-17T09:00:11;13.30;92.60
67890;DHT22;54685;52.082;5.426;2023-05-17T09:02:41;13.60;91.90
67890;DHT22;54685;52.082;5.426;2023-05-17T09:05:09;13.80;79.70
67890;DHT22;54685;52.082;5.426;2023-05-17T09:07:36;14.00;75.60
67890;DHT22;54685;52.082;5.426;2023-05-17T09:10:04;14.30;70.40
67890;DHT22;54685;52.082;5.426;2023-05-17T09:12:32;14.40;67.40
67890;DHT22;54685;52.082;5.426;2023-05-17T09:15:19;14.60;73.90
67890;DHT22;54685;52.082;5.426;2023-05-17T09:17:53;15.00;75.80
67890;DHT22;54685;52.082;5.426;2023-05-17T09:20:22;15.00;75.90
67890;DHT22;54685;52.082;5.426;2023-05-17T09:22:50;14.90;72.50
67890;DHT22;54685;52.082;5.426;2023-05-17T09:25:22;15.00;75.00
67890;DHT22;54685;52.082;5.426;2023-05-17T09:27:53;15.20;71.10
67890;DHT22;54685;52.082;5.426;2023-05-17T09:30:32;15.50;73.20
67890;DHT22;54685;52.082;5.426;2023-05-17T09:33:09;15.80;64.10
67890;DHT22;54685;52.082;5.426;2023-05-17T09:35:38;15.80;64.10
67890;DHT22;54685;52.082;5.426;2023-05-17T09:38:10;15.80;58.70
67890;DHT22;54685;52.082;5.426;2023-05-17T09:40:47;16.00;65.90
67890;DHT22;54685;52.082;5.426;2023-05-17T09:43:15;16.50;66.40
67890;DHT22;54685;52.082;5.426;2023-05-17T09:45:42;16.80;57.60
67890;DHT22;54685;52.082;5.426;2023-05-17T09:48:11;16.40;60.70
67890;DHT22;54685;52.082;5.426;2023-05-17T09:50:43;16.60;64.20
67890;DHT22;54685;52.082;5.426;2023-05-17T09:53:30;16.60;59.90
67890;DHT22;54685;52.082;5.426;2023-05-17T09:56:02;16.80;53.60
67890;DHT22;54685;52.082;5.426;2023-05-17T09:58:35;17.20;60.50
67890;DHT22;54685;52.082;5.426;2023-05-17T10:01:04;17.40;58.60
67890;DHT22;54685;52.082;5.426;2023-05-17T10:03:35;17.50;58.20
67890;DHT22;54685;52.082;5.426;2023-05-17T10:06:07;17.70;51.60
67890;DHT22;54685;52.082;5.426;2023-05-17T10:08:46;17.80;55.80
67890;DHT22;54685;52.082;5.426;2023-05-17T10:11:17;17.80;51.50
67890;DHT22;54685;52.082;5.426;2023-05-17T10:16:41;18.10;52.70
67890;DHT22;54685;52.082;5.426;2023-05-17T10:19:10;18.20;50.70
67890;DHT22;54685;52.082;5.426;2023-05-17T10:21:39;18.20;50.60
67890;DHT22;54685;52.082;5.426;2023-05-17T10:24:10;18.30;50.60
67890;DHT22;54685;52.082;5.426;2023-05-17T10:26:38;18.30;49.30
67890;DHT22;54685;52.082;5.426;2023-05-17T10:29:08;18.30;52.10
67890;DHT22;54685;52.082;5.426;2023-05-17T10:31:35;18.60;48.50
67890;DHT22;54685;52.082;5.426;2023-05-17T10:34:04;18.50;50.20
67890;DHT22;54685;52.082;5.426;2023-05-17T10:36:32;18.70;48.00
67890;DHT22;54685;52.082;5.426;2023-05-17T10:39:00;18.90;48.10
67890;DHT22;54685;52.082;5.426;2023-05-17T10:41:32;19.10;48.50
67890;DHT22;54685;52.082;5.426;2023-05-17T10:44:05;19.30;46.00
67890;DHT22;54685;52.082;5.426;2023-05-17T10:46:35;19.40;47.90
67890;DHT22;54685;52.082;5.426;2023-05-17T10:49:02;19.60;47.80
67890;DHT22;54685;52.082;5.426;2023-05-17T10:51:31;19.70;44.90
67890;DHT22;54685;52.082;5.426;2023-05-17T10:54:13;19.50;47.50
67890;DHT22;54685;52.082;5.426;2023-05-17T10:56:51;19.20;45.20
67890;DHT22;54685;52.082;5.426;2023-05-17T10:59:27;19.00;45.40
67890;DHT22;54685;52.082;5.426;2023-05-17T11:02:06;18.60;46.40
67890;DHT22;54685;52.082;5.426;2023-05-17T11:04:39;18.90;46.00
67890;DHT22;54685;52.082;5.426;2023-05-17T11:09:44;19.50;46.60
67890;DHT22;54685;52.082;5.426;2023-05-17T11:12:12;19.90;44.30
67890;DHT22;54685;52.082;5.426;2023-05-17T11:17:16;19.60;44.20
67890;DHT22;54685;52.082;5.426;2023-05-17T11:20:03;19.50;46.10
67890;DHT22;54685;52.082;5.426;2023-05-17T11:22:40;19.60;45.30
67890;DHT22;54685;52.082;5.426;2023-05-17T11:25:11;19.90;44.30
67890;DHT22;54685;52.082;5.426;2023-05-17T11:27:48;20.20;43.70
67890;DHT22;54685;52.082;5.426;2023-05-17T11:30:26;19.80;43.80
67890;DHT22;54685;52.082;5.426;2023-05-17T11:32:58;20.00;42.80
67890;DHT22;54685;52.082;5.426;2023-05-17T11:35:33;20.10;43.90
67890;DHT22;54685;52.082;5.426;2023-05-17T11:38:19;20.20;43.10
67890;DHT22;54685;52.082;5.426;2023-05-17T11:40:48;20.40;41.10
67890;DHT22;54685;52.082;5.426;2023-05-17T11:43:20;20.50;42.30
67890;DHT22;54685;52.082;5.426;2023-05-17T11:45:56;20.40;39.80
67890;DHT22;54685;52.082;5.426;2023-05-17T11:48:24;20.40;41.10
67890;DHT22;54685;52.082;5.426;2023-05-17T11:50:53;20.20;39.90
67890;DHT22;54685;52.082;5.426;2023-05-17T11:53:21;19.90;40.00
67890;DHT22;54685;52.082;5.426;2023-05-17T11:55:51;20.00;41.80
67890;DHT22;54685;52.082;5.426;2023-05-17T11:58:22;20.00;42.60
67890;DHT22;54685;52.082;5.426;2023-05-17T12:00:57;20.50;42.90
67890;DHT22;54685;52.082;5.426;2023-05-17T12:03:28;20.90;41.00
67890;DHT22;54685;52.082;5.426;2023-05-17T12:06:09;21.00;40.50
67890;DHT22;54685;52.082;5.426;2023-05-17T12:08:38;21.10;40.50
67890;DHT22;54685;52.082;5.426;2023-05-17T12:11:06;20.80;39.20
67890;DHT22;54685;52.082;5.426;2023-05-17T12:13:37;20.50;40.70
67890;DHT22;54685;52.082;5.426;2023-05-17T12:16:14;20.30;39.80
67890;DHT22;54685;52.082;5.426;2023-05-17T12:18:50;20.50;41.40
67890;DHT22;54685;52.082;5.426;2023-05-17T12:21:18;20.60;41.80
67890;DHT22;54685;52.082;5.426;2023-05-17T12:23:50;20.70;40.80
67890;DHT22;54685;52.082;5.426;2023-05-17T12:26:22;20.80;40.30
67890;DHT22;54685;52.082;5.426;2023-05-17T12:28:55;20.70;40.50
67890;DHT22;54685;52.082;5.426;2023-05-17T12:31:35;20.60;39.90
67890;DHT22;54685;52.082;5.426;2023-05-17T12:34:07;20.30;38.10
67890;DHT22;54685;52.082;5.426;2023-05-17T12:36:43;19.80;39.50
67890;DHT22;54685;52.082;5.426;2023-05-17T12:39:11;19.70;40.70
67890;DHT22;54685;52.082;5.426;2023-05-17T12:41:39;20.00;39.70
67890;DHT22;54685;52.082;5.426;2023-05-17T12:44:07;20.20;41.10
67890;DHT22;54685;52.082;5.426;2023-05-17T12:46:37;20.30;40.50
67890;DHT22;54685;52.082;5.426;2023-05-17T12:49:06;20.50;40.80
67890;DHT22;54685;52.082;5.426;2023-05-17T12:51:41;20.40;39.80
67890;DHT22;54685;52.082;5.426;2023-05-17T12:54:09;20.30;38.70
67890;DHT22;54685;52.082;5.426;2023-05-17T12:56:37;20.20;39.90
67890;DHT22;54685;52.082;5.426;2023-05-17T13:04:05;20.10;41.80
67890;DHT22;54685;52.082;5.426;2023-05-17T13:06:51;20.20;39.30
67890;DHT22;54685;52.082;5.426;2023-05-17T13:09:20;19.40;38.80
67890;DHT22;54685;52.082;5.426;2023-05-17T13:11:59;19.60;40.40
67890;DHT22;54685;52.082;5.426;2023-05-17T13:14:39;19.90;37.20
67890;DHT22;54685;52.082;5.426;2023-05-17T13:17:23;20.00;38.60
67890;DHT22;54685;52.082;5.426;2023-05-17T13:19:50;19.70;38.00
67890;DHT22;54685;52.082;5.426;2023-05-17T13:22:17;19.40;38.10
67890;DHT22;54685;52.082;5.426;2023-05-17T13:24:44;19.30;40.60
67890;DHT22;54685;52.082;5.426;2023-05-17T13:27:11;19.50;40.10
67890;DHT22;54685;52.082;5.426;2023-05-17T13:29:41;19.40;40.00
67890;DHT22;54685;52.082;5.426;2023-05-17T13:32:10;19.40;38.10
67890;DHT22;54685;52.082;5.426;2023-05-17T13:34:38;19.40;38.50
67890;DHT22;54685;52.082;5.426;2023-05-17T13:37:05;19.20;39.70
67890;DHT22;54685;52.082;5.426;2023-05-17T13:39:37;19.30;40.90
67890;DHT22;54685;52.082;5.426;2023-05-17T13:42:04;19.60;39.60
67890;DHT22;54685;52.082;5.426;2023-05-17T13:44:31;19.50;39.10
67890;DHT22;54685;52.082;5.426;2023-05-17T13:46:58;18.70;40.50
67890;DHT22;54685;52.082;5.426;2023-05-17T13:49:25;18.90;41.40
67890;DHT22;54685;52.082;5.426;2023-05-17T13:51:56;19.20;42.30
67890;DHT22;54685;52.082;5.426;2023-05-17T13:54:23;19.20;40.90
67890;DHT22;54685;52.082;5.426;2023-05-17T13:56:50;19.10;40.00
67890;DHT22;54685;52.082;5.426;2023-05-17T13:59:17;19.20;38.20
67890;DHT22;54685;52.082;5.426;2023-05-17T14:01:44;19.00;38.90
67890;DHT22;54685;52.082;5.426;2023-05-17T14:04:12;18.80;39.00
67890;DHT22;54685;52.082;5.426;2023-05-17T14:06:40;18.40;38.80
67890;DHT22;54685;52.082;5.426;2023-05-17T14:09:08;18.50;39.00
67890;DHT22;54685;52.082;5.426;2023-05-17T14:11:36;18.40;38.60
67890;DHT22;54685;52.082;5.426;2023-05-17T14:14:06;18.50;40.90
67890;DHT22;54685;52.082;5.426;2023-05-17T14:16:33;18.50;39.60
67890;DHT22;54685;52.082;5.426;2023-05-17T14:19:00;18.40;37.70
67890;DHT22;54685;52.082;5.426;2023-05-17T14:21:30;18.60;38.40
67890;DHT22;54685;52.082;5.426;2023-05-17T14:23:57;18.60;39.10
67890;DHT22;54685;52.082;5.426;2023-05-17T14:26:24;18.70;38.50
67890;DHT22;54685;52.082;5.426;2023-05-17T14:28:52;18.80;40.10
67890;DHT22;54685;52.082;5.426;2023-05-17T14:31:19;19.20;40.60
67890;DHT22;54685;52.082;5.426;2023-05-17T14:33:46;19.40;39.60
67890;DHT22;54685;52.082;5.426;2023-05-17T14:36:13;19.00;39.10
67890;DHT22;54685;52.082;5.426;2023-05-17T14:38:40;19.20;39.30
67890;DHT22;54685;52.082;5.426;2023-05-17T14:41:07;19.80;40.90
67890;DHT22;54685;52.082;5.426;2023-05-17T14:43:34;20.10;39.40
67890;DHT22;54685;52.082;5.426;2023-05-17T14:46:03;19.90;38.30
67890;DHT22;54685;52.082;5.426;2023-05-17T14:48:29;20.10;37.00
67890;DHT22;54685;52.082;5.426;2023-05-17T14:50:57;19.90;37.70
67890;DHT22;54685;52.082;5.426;2023-05-17T14:53:24;20.00;38.70
67890;DHT22;54685;52.082;5.426;2023-05-17T14:56:01;20.10;39.20
67890;DHT22;54685;52.082;5.426;2023-05-17T14:58:28;20.30;40.30
67890;DHT22;54685;52.082;5.426;2023-05-17T15:00:55;20.00;38.40
67890;DHT22;54685;52.082;5.426;2023-05-17T15:03:33;19.80;39.00
67890;DHT22;54685;52.082;5.426;2023-05-17T15:06:01;20.00;40.60
67890;DHT22;54685;52.082;5.426;2023-05-17T15:08:33;20.00;40.40
67890;DHT22;54685;52.082;5.426;2023-05-17T15:11:04;19.30;38.10
67890;DHT22;54685;52.082;5.426;2023-05-17T15:13:34;18.90;37.90
67890;DHT22;54685;52.082;5.426;2023-05-17T15:16:01;19.00;39.50
67890;DHT22;54685;52.082;5.426;2023-05-17T15:18:30;19.00;38.30
67890;DHT22;54685;52.082;5.426;2023-05-17T15:20:57;19.00;37.80
67890;DHT22;54685;52.082;5.426;2023-05-17T15:23:25;18.90;39.20
67890;DHT22;54685;52.082;5.426;2023-05-17T15:25:52;19.10;37.90
67890;DHT22;54685;52.082;5.426;2023-05-17T15:28:20;19.20;38.60
67890;DHT22;54685;52.082;5.426;2023-05-17T15:30:59;19.10;38.00
67890;DHT22;54685;52.082;5.426;2023-05-17T15:33:28;18.80;40.20
67890;DHT22;54685;52.082;5.426;2023-05-17T15:35:58;18.50;40.50
67890;DHT22;54685;52.082;5.426;2023-05-17T15:38:25;18.40;41.90
67890;DHT22;54685;52.082;5.426;2023-05-17T15:41:02;18.40;42.60
67890;DHT22;54685;52.082;5.426;2023-05-17T15:43:33;18.20;40.60
67890;DHT22;54685;52.082;5.426;2023-05-17T15:46:04;18.10;43.10
67890;DHT22;54685;52.082;5.426;2023-05-17T15:48:31;18.30;43.00
67890;DHT22;54685;52.082;5.426;2023-05-17T15:51:00;18.30;42.50
67890;DHT22;54685;52.082;5.426;2023-05-17T15:53:27;18.30;42.10
67890;DHT22;54685;52.082;5.426;2023-05-17T15:55:55;18.10;41.30
67890;DHT22;54685;52.082;5.426;2023-05-17T15:58:25;18.20;41.40
67890;DHT22;54685;52.082;5.426;2023-05-17T16:01:02;18.10;41.30
67890;DHT22;54685;52.082;5.426;2023-05-17T16:03:30;17.90;43.30
67890;DHT22;54685;52.082;5.426;2023-05-17T16:05:58;18.00;43.90
67890;DHT22;54685;52.082;5.426;2023-05-17T16:08:25;18.00;43.70
67890;DHT22;54685;52.082;5.426;2023-05-17T16:10:53;18.00;43.70
67890;DHT22;54685;52.082;5.426;2023-05-17T16:13:19;18.00;44.60
67890;DHT22;54685;52.082;5.426;2023-05-17T16:15:46;17.90;43.70